Time;durP1;ratioP1;P1;durP2;ratioP2;P2;SDS_P1;SDS_P2;PMS_P1;PMS_P2;Temp;Humidity;BMP_temperature;BMP_pressure;BME280_temperature;BME280_humidity;BME280_pressure;Samples;Min_cycle;Max_cycle;Signal;HPM_P1;HPM_P2
2023/10/08 00:02:22;;;;;;;0.10;0.10;;;;;;;15.40;72.62;97861.69;5135310;27;20425;-75
2023/10/08 00:04:51;;;;;;;0.10;0.10;;;;;;;15.37;72.94;97871.00;5138928;27;20043;-74
2023/10/08 00:07:21;;;;;;;0.10;0.10;;;;;;;15.36;73.37;97877.47;5134303;27;20067;-74
2023/10/08 00:09:51;;;;;;;0.20;0.20;;;;;;;15.34;73.04;97870.66;5132271;27;20039;-74
2023/10/08 00:12:20;;;;;;;0.15;0.15;;;;;;;15.31;73.17;97866.50;5136557;27;20049;-73
2023/10/08 00:14:52;;;;;;;0.10;0.10;;;;;;;15.31;73.27;97863.00;5138656;27;20046;-74
2023/10/08 00:17:20;;;;;;;0.20;0.20;;;;;;;15.28;73.35;97860.75;5133116;27;20122;-74
2023/10/08 00:19:52;;;;;;;0.10;0.10;;;;;;;15.24;73.46;97862.22;5129955;27;20035;-74
2023/10/08 00:22:24;;;;;;;0.20;0.20;;;;;;;15.24;73.63;97868.44;5133905;27;20620;-74
2023/10/08 00:24:57;;;;;;;0.10;0.10;;;;;;;15.21;73.75;97862.66;5130111;27;20042;-74
2023/10/08 00:27:26;;;;;;;0.20;0.20;;;;;;;15.21;73.95;97878.78;5133557;27;20045;-75
2023/10/08 00:29:56;;;;;;;0.10;0.10;;;;;;;15.16;74.10;97876.75;5132932;27;20035;-74
2023/10/08 00:32:24;;;;;;;0.25;0.25;;;;;;;15.13;74.21;97871.00;5138547;27;20039;-74
2023/10/08 00:34:52;;;;;;;0.10;0.10;;;;;;;15.11;74.32;97881.13;5122168;27;20075;-75
2023/10/08 00:37:23;;;;;;;0.10;0.10;;;;;;;15.05;74.52;97878.25;5107693;27;20050;-74
2023/10/08 00:39:51;;;;;;;0.10;0.10;;;;;;;15.08;74.51;97882.38;5133614;27;20095;-74
2023/10/08 00:42:19;;;;;;;0.32;0.32;;;;;;;15.06;74.58;97871.00;5125214;27;20628;-74
2023/10/08 00:44:51;;;;;;;0.10;0.10;;;;;;;15.04;74.52;97879.31;5134900;27;20122;-76
2023/10/08 00:47:23;;;;;;;0.10;0.10;;;;;;;15.03;74.65;97874.16;5113122;27;20054;-75
2023/10/08 00:50:07;;;;;;;0.10;0.10;;;;;;;15.02;74.71;97876.03;5112329;27;20403;-75
2023/10/08 00:52:45;;;;;;;0.20;0.20;;;;;;;14.98;74.80;97864.03;5119434;27;20086;-75
2023/10/08 00:55:24;;;;;;;0.20;0.20;;;;;;;14.97;75.00;97875.81;5110300;27;20055;-75
2023/10/08 00:57:53;;;;;;;0.10;0.10;;;;;;;14.95;75.06;97877.91;5110498;27;20055;-74
2023/10/08 01:00:22;;;;;;;0.10;0.10;;;;;;;14.99;75.04;97873.75;5131984;27;20099;-75
2023/10/08 01:03:00;;;;;;;0.20;0.20;;;;;;;14.99;74.94;97865.69;5133092;27;20527;-74
2023/10/08 01:05:42;;;;;;;0.20;0.20;;;;;;;15.02;75.13;97881.41;5136021;27;20046;-72
2023/10/08 01:08:12;;;;;;;0.10;0.10;;;;;;;14.98;74.95;97873.97;5114609;27;20139;-74
2023/10/08 01:10:43;;;;;;;0.10;0.10;;;;;;;14.95;75.28;97874.41;5132116;27;20039;-72
2023/10/08 01:13:15;;;;;;;0.17;0.17;;;;;;;14.96;75.10;97884.94;5116739;27;20043;-72
2023/10/08 01:15:48;;;;;;;0.10;0.10;;;;;;;14.98;75.18;97890.09;5113676;28;20522;-74
2023/10/08 01:18:17;;;;;;;0.10;0.10;;;;;;;14.97;75.15;97877.69;5116672;27;20079;-72
2023/10/08 01:20:52;;;;;;;0.10;0.10;;;;;;;14.98;75.13;97880.16;5130563;27;20179;-75
2023/10/08 01:23:22;;;;;;;0.20;0.20;;;;;;;14.97;75.33;97866.94;5131559;27;20122;-75
2023/10/08 01:25:52;;;;;;;0.20;0.20;;;;;;;14.98;75.12;97872.09;5124480;27;20035;-73
2023/10/08 01:28:25;;;;;;;0.20;0.20;;;;;;;14.97;75.30;97870.44;5113895;27;20043;-73
2023/10/08 01:30:55;;;;;;;0.10;0.10;;;;;;;14.95;75.36;97874.41;5129491;27;20068;-75
2023/10/08 01:33:26;;;;;;;0.20;0.20;;;;;;;14.95;75.56;97867.16;5118317;27;20498;-75
2023/10/08 01:35:55;;;;;;;0.10;0.10;;;;;;;14.94;75.80;97868.22;5130371;27;20411;-76
2023/10/08 01:38:26;;;;;;;0.10;0.10;;;;;;;14.92;76.08;97856.84;5114906;27;20074;-73
2023/10/08 01:40:53;;;;;;;0.10;0.10;;;;;;;14.94;76.08;97875.44;5130646;27;20047;-73
2023/10/08 01:43:21;;;;;;;0.20;0.20;;;;;;;14.91;76.20;97867.81;5128978;27;20490;-75
2023/10/08 01:45:52;;;;;;;0.20;0.20;;;;;;;14.92;76.29;97890.97;5131578;27;20070;-75
2023/10/08 01:48:25;;;;;;;0.10;0.10;;;;;;;14.90;76.32;97888.50;5114408;27;20082;-75
2023/10/08 01:50:55;;;;;;;0.10;0.10;;;;;;;14.89;76.71;97886.84;5129569;27;20125;-73
2023/10/08 01:53:24;;;;;;;0.10;0.10;;;;;;;14.87;76.91;97894.28;5140457;27;20521;-74
2023/10/08 01:55:55;;;;;;;0.10;0.10;;;;;;;14.89;76.81;97891.38;5130137;27;20063;-74
2023/10/08 01:58:23;;;;;;;0.20;0.20;;;;;;;14.88;77.13;97889.72;5133960;27;20055;-75
2023/10/08 02:00:52;;;;;;;0.20;0.20;;;;;;;14.87;77.20;97885.41;5123675;27;20049;-74
2023/10/08 02:03:22;;;;;;;0.20;0.20;;;;;;;14.86;77.15;97886.44;5136717;27;20118;-74
2023/10/08 02:05:58;;;;;;;0.10;0.10;;;;;;;14.85;77.25;97877.53;5120785;27;20398;-73
2023/10/08 02:08:30;;;;;;;0.10;0.10;;;;;;;14.84;77.57;97886.69;5124557;27;20130;-75
2023/10/08 02:10:57;;;;;;;0.25;0.25;;;;;;;14.84;77.63;97880.47;5114990;27;20070;-74
2023/10/08 02:13:26;;;;;;;0.28;0.28;;;;;;;14.83;77.67;97885.03;5109985;28;20419;-74
2023/10/08 02:15:53;;;;;;;0.10;0.10;;;;;;;14.83;77.60;97887.72;5131170;27;20047;-74
2023/10/08 02:18:23;;;;;;;0.30;0.30;;;;;;;14.84;77.67;97888.53;5131281;28;20036;-74
2023/10/08 02:20:51;;;;;;;0.20;0.20;;;;;;;14.86;77.61;97887.25;5110286;28;20074;-76
2023/10/08 02:23:19;;;;;;;0.20;0.20;;;;;;;14.87;77.50;97888.09;5131716;27;20050;-74
2023/10/08 02:25:48;;;;;;;0.15;0.15;;;;;;;14.84;77.58;97881.28;5130280;28;20058;-75
2023/10/08 02:28:17;;;;;;;0.10;0.10;;;;;;;14.89;77.30;97886.84;5113860;27;20047;-74
2023/10/08 02:30:44;;;;;;;0.20;0.20;;;;;;;14.87;77.72;97885.41;5133353;27;21751;-74
2023/10/08 02:33:15;;;;;;;0.20;0.20;;;;;;;14.80;77.47;97885.44;5138942;27;20138;-73
2023/10/08 02:35:45;;;;;;;0.13;0.13;;;;;;;14.82;77.47;97886.06;5135209;27;20051;-75
2023/10/08 02:38:16;;;;;;;0.10;0.10;;;;;;;14.85;77.46;97890.97;5112804;27;20047;-73
2023/10/08 02:40:47;;;;;;;0.20;0.20;;;;;;;14.81;77.75;97895.16;5121402;27;20071;-74
2023/10/08 02:43:17;;;;;;;0.10;0.10;;;;;;;14.83;77.33;97916.44;5146217;27;20039;-73
2023/10/08 02:45:49;;;;;;;0.10;0.10;;;;;;;14.84;77.58;97921.63;5135306;27;20035;-73
2023/10/08 02:48:17;;;;;;;0.20;0.20;;;;;;;14.88;77.56;97920.13;5135948;27;20035;-71
2023/10/08 02:50:46;;;;;;;0.10;0.10;;;;;;;14.89;77.27;97919.09;5136547;27;20510;-73
2023/10/08 02:53:17;;;;;;;0.10;0.10;;;;;;;14.91;77.30;97917.03;5138541;27;20126;-72
2023/10/08 02:55:46;;;;;;;0.20;0.20;;;;;;;14.92;77.47;97905.22;5130784;27;20112;-72
2023/10/08 02:58:18;;;;;;;0.13;0.13;;;;;;;14.91;77.23;97917.03;5124276;27;20047;-73
2023/10/08 03:00:48;;;;;;;0.20;0.20;;;;;;;14.94;77.32;97916.59;5125442;27;20043;-71
2023/10/08 03:03:16;;;;;;;0.10;0.10;;;;;;;14.92;77.22;97915.16;5124095;27;20074;-72
2023/10/08 03:05:46;;;;;;;0.10;0.10;;;;;;;14.88;77.26;97928.19;5118081;27;20046;-72
2023/10/08 03:08:19;;;;;;;0.25;0.25;;;;;;;14.90;77.26;97927.97;5116813;27;20047;-72
2023/10/08 03:10:48;;;;;;;0.10;0.10;;;;;;;14.88;77.54;97922.00;5116022;27;20043;-72
2023/10/08 03:13:19;;;;;;;0.10;0.10;;;;;;;14.89;77.43;97926.31;5114376;27;20035;-74
2023/10/08 03:15:57;;;;;;;0.22;0.22;;;;;;;14.89;77.60;97920.94;5134905;27;20099;-72
2023/10/08 03:18:25;;;;;;;0.10;0.10;;;;;;;14.89;77.44;97910.19;5105438;27;20048;-72
2023/10/08 03:20:53;;;;;;;0.20;0.20;;;;;;;14.89;77.69;97918.25;5129683;27;20110;-72
2023/10/08 03:23:25;;;;;;;0.10;0.10;;;;;;;14.89;77.57;97918.25;5139807;27;20038;-74
2023/10/08 03:25:59;;;;;;;0.10;0.10;;;;;;;14.89;77.75;97919.09;5118083;27;20146;-73
2023/10/08 03:28:28;;;;;;;0.20;0.20;;;;;;;14.90;77.61;97930.66;5132875;27;20046;-77
2023/10/08 03:31:04;;;;;;;0.10;0.10;;;;;;;14.93;77.47;97927.56;5117295;27;20042;-74
2023/10/08 03:33:35;;;;;;;0.15;0.15;;;;;;;15.05;77.02;97917.78;5116757;27;20158;-73
2023/10/08 03:36:09;;;;;;;0.10;0.10;;;;;;;15.03;77.34;97926.06;5134675;27;20667;-72
2023/10/08 03:38:50;;;;;;;0.10;0.10;;;;;;;15.04;77.33;97919.66;5133391;27;20555;-73
2023/10/08 03:41:28;;;;;;;0.22;0.22;;;;;;;15.10;77.06;97917.94;5125312;27;20494;-73
2023/10/08 03:44:01;;;;;;;0.20;0.20;;;;;;;15.10;77.26;97911.75;5123869;27;20042;-73
2023/10/08 03:46:30;;;;;;;0.10;0.10;;;;;;;15.09;77.21;97916.28;5128744;27;20478;-74
2023/10/08 03:49:04;;;;;;;0.17;0.17;;;;;;;15.12;77.25;97912.38;5131625;27;20047;-73
2023/10/08 03:51:39;;;;;;;0.17;0.17;;;;;;;15.13;77.42;97908.63;5140158;27;20088;-73
2023/10/08 03:54:15;;;;;;;0.20;0.20;;;;;;;15.15;77.23;97938.84;5134342;27;20118;-73
2023/10/08 03:56:46;;;;;;;0.20;0.20;;;;;;;15.15;77.38;97933.44;5133165;27;20043;-75
2023/10/08 03:59:20;;;;;;;0.15;0.15;;;;;;;15.18;77.38;97933.81;5137325;27;20110;-74
2023/10/08 04:01:54;;;;;;;0.20;0.20;;;;;;;15.19;77.25;97946.22;5134252;27;20455;-73
2023/10/08 04:04:30;;;;;;;0.10;0.10;;;;;;;15.24;77.19;97948.28;5139521;27;20107;-73
2023/10/08 04:07:24;;;;;;;0.20;0.20;;;;;;;15.24;77.23;97943.75;5126257;27;20041;-73
2023/10/08 04:09:47;;;;;;;0.10;0.10;;;;;;;15.29;77.08;97940.38;5133908;27;20065;-72
2023/10/08 04:12:18;;;;;;;0.32;0.20;;;;;;;15.32;77.14;97939.97;5134361;27;20456;-72
2023/10/08 04:14:47;;;;;;;0.20;0.20;;;;;;;15.35;77.32;97934.16;5139643;27;20543;-74
2023/10/08 04:17:22;;;;;;;0.13;0.13;;;;;;;15.84;76.41;97927.22;5133847;27;20054;-72
2023/10/08 04:19:51;;;;;;;0.25;0.25;;;;;;;15.94;76.03;97932.91;5133053;27;20054;-73
2023/10/08 04:22:18;;;;;;;0.10;0.10;;;;;;;15.99;75.59;97936.59;5134012;27;20039;-75
2023/10/08 04:24:47;;;;;;;0.10;0.10;;;;;;;16.01;75.70;97926.41;5136627;27;20179;-75
2023/10/08 04:27:15;;;;;;;0.10;0.10;;;;;;;16.00;76.13;97923.94;5126480;27;20138;-73
2023/10/08 04:29:42;;;;;;;0.13;0.13;;;;;;;16.24;76.25;97912.34;5130456;27;20071;-74
2023/10/08 04:32:20;;;;;;;0.15;0.15;;;;;;;16.24;76.36;97901.56;5127588;27;20095;-74
2023/10/08 04:34:49;;;;;;;0.20;0.20;;;;;;;16.34;76.20;97876.78;5131245;27;20088;-72
2023/10/08 04:37:20;;;;;;;0.15;0.15;;;;;;;16.28;76.92;97891.16;5127277;27;20039;-72
2023/10/08 04:39:54;;;;;;;0.20;0.20;;;;;;;16.21;77.77;97893.91;5133919;27;20067;-72
2023/10/08 04:42:25;;;;;;;0.17;0.17;;;;;;;16.17;77.93;97890.03;5134480;27;20047;-72
2023/10/08 04:44:55;;;;;;;0.40;0.40;;;;;;;16.15;78.56;97900.19;5135682;27;20732;-73
2023/10/08 04:47:35;;;;;;;0.17;0.17;;;;;;;16.13;78.49;97902.28;5133480;27;20047;-73
2023/10/08 04:50:06;;;;;;;0.10;0.10;;;;;;;16.13;78.64;97905.81;5110926;27;20498;-74
2023/10/08 04:52:45;;;;;;;0.20;0.20;;;;;;;16.10;78.82;97895.47;5133117;27;20043;-74
2023/10/08 04:55:19;;;;;;;0.20;0.20;;;;;;;16.04;79.13;97890.16;5132446;27;20414;-74
2023/10/08 04:57:49;;;;;;;0.10;0.10;;;;;;;16.05;78.92;97911.47;5133446;27;20068;-74
2023/10/08 05:00:26;;;;;;;0.10;0.10;;;;;;;15.99;79.20;97904.28;5133694;27;20495;-73
2023/10/08 05:03:03;;;;;;;0.10;0.10;;;;;;;15.94;78.92;97889.84;5132101;27;20833;-74
2023/10/08 05:05:50;;;;;;;0.08;0.08;;;;;;;15.73;78.73;97897.28;5133464;27;20058;-74
2023/10/08 05:08:28;;;;;;;0.10;0.10;;;;;;;15.49;79.25;97894.53;5128093;27;20054;-72
2023/10/08 05:11:15;;;;;;;0.10;0.10;;;;;;;15.08;79.72;97898.50;5133028;27;20046;-73
2023/10/08 05:14:01;;;;;;;0.10;0.10;;;;;;;14.80;80.63;97890.00;5136386;27;20490;-73
2023/10/08 05:16:36;;;;;;;0.10;0.10;;;;;;;14.66;81.21;97911.53;5118901;27;20047;-72
2023/10/08 05:19:24;;;;;;;0.10;0.10;;;;;;;14.49;81.48;97921.09;5135153;27;20035;-71
2023/10/08 05:22:05;;;;;;;0.20;0.20;;;;;;;14.38;82.20;97958.50;5132766;27;20163;-72
2023/10/08 05:24:38;;;;;;;0.17;0.17;;;;;;;14.33;82.53;97954.56;5140744;27;20440;-73
2023/10/08 05:32:51;;;;;;;0.15;0.15;;;;;;;13.99;82.42;97975.47;5132002;27;20043;-74
2023/10/08 05:38:22;;;;;;;0.08;0.08;;;;;;;13.72;82.79;97986.19;5127751;27;20043;-73
2023/10/08 05:41:12;;;;;;;0.20;0.20;;;;;;;13.67;82.73;97993.22;5131085;27;20049;-73
2023/10/08 05:49:42;;;;;;;0.20;0.20;;;;;;;13.40;83.00;98027.16;5075734;27;20059;-73
2023/10/08 05:52:27;;;;;;;0.20;0.20;;;;;;;13.35;82.65;98025.13;5122303;27;20134;-73
2023/10/08 05:57:46;;;;;;;0.25;0.25;;;;;;;13.15;82.13;98032.25;5137731;27;20065;-75
2023/10/08 06:03:09;;;;;;;0.15;0.15;;;;;;;13.08;82.64;98039.41;5112121;27;20153;-72
2023/10/08 06:05:47;;;;;;;0.20;0.20;;;;;;;13.09;82.19;98044.56;5129427;27;20041;-74
2023/10/08 06:08:21;;;;;;;0.10;0.10;;;;;;;13.11;82.74;98063.94;5126107;27;20039;-75
2023/10/08 06:10:56;;;;;;;0.10;0.10;;;;;;;13.18;82.57;98066.72;5124756;27;20479;-71
2023/10/08 06:13:44;;;;;;;0.10;0.10;;;;;;;13.22;82.81;98078.66;5126811;27;20047;-74
2023/10/08 06:16:30;;;;;;;0.20;0.20;;;;;;;13.23;82.87;98072.28;5124471;27;20047;-75
2023/10/08 06:18:57;;;;;;;0.00;0.00;;;;;;;13.25;82.32;98091.69;5133742;27;20047;-75
2023/10/08 06:21:26;;;;;;;0.10;0.10;;;;;;;13.20;82.45;98102.16;5134830;27;20047;-75
2023/10/08 06:23:56;;;;;;;0.17;0.17;;;;;;;13.18;82.51;98110.41;5130819;27;20073;-73
2023/10/08 06:26:25;;;;;;;0.20;0.20;;;;;;;13.14;82.65;98116.38;5132464;28;20066;-73
2023/10/08 06:28:57;;;;;;;0.15;0.15;;;;;;;13.06;82.64;98135.25;5132121;28;20070;-73
2023/10/08 06:31:26;;;;;;;0.20;0.20;;;;;;;13.03;82.97;98135.66;5136829;27;20496;-74
2023/10/08 06:33:54;;;;;;;0.10;0.10;;;;;;;13.05;83.01;98133.59;5134957;27;20047;-73
2023/10/08 06:36:24;;;;;;;0.10;0.10;;;;;;;13.02;83.18;98128.63;5126565;28;20482;-73
2023/10/08 06:38:52;;;;;;;0.20;0.20;;;;;;;13.02;83.55;98137.50;5125107;28;20046;-72
2023/10/08 06:41:28;;;;;;;0.20;0.20;;;;;;;12.96;83.72;98134.78;5133272;28;20434;-72
2023/10/08 06:44:14;;;;;;;0.10;0.10;;;;;;;12.90;84.41;98141.75;5128784;27;20047;-73
2023/10/08 06:46:43;;;;;;;0.10;0.10;;;;;;;12.87;84.09;98136.78;5132502;28;20123;-73
2023/10/08 06:49:15;;;;;;;0.20;0.20;;;;;;;12.86;84.46;98143.16;5129589;28;20046;-73
2023/10/08 06:51:43;;;;;;;0.10;0.10;;;;;;;12.85;84.43;98153.06;5143205;27;20113;-73
2023/10/08 06:54:13;;;;;;;0.13;0.13;;;;;;;12.87;84.53;98152.88;5136134;27;20095;-75
2023/10/08 06:56:46;;;;;;;0.10;0.10;;;;;;;12.86;84.63;98168.13;5131108;27;20388;-78
2023/10/08 06:59:14;;;;;;;0.10;0.10;;;;;;;12.88;84.63;98160.69;5135549;28;20478;-73
2023/10/08 07:01:45;;;;;;;0.20;0.20;;;;;;;12.87;84.51;98161.72;5130076;27;20043;-75
2023/10/08 07:04:14;;;;;;;0.20;0.20;;;;;;;12.88;84.64;98166.03;5132587;27;20043;-73
2023/10/08 07:06:45;;;;;;;0.10;0.10;;;;;;;12.89;84.52;98158.84;5133161;28;20039;-74
2023/10/08 07:09:22;;;;;;;0.10;0.10;;;;;;;12.88;84.58;98147.28;5129127;27;20509;-74
2023/10/08 07:11:54;;;;;;;0.17;0.17;;;;;;;12.87;84.44;98160.91;5135863;27;20118;-75
2023/10/08 07:14:24;;;;;;;0.10;0.10;;;;;;;12.78;83.89;98167.41;5117753;27;20079;-75
2023/10/08 07:16:54;;;;;;;0.10;0.10;;;;;;;12.80;83.97;98179.59;5134105;27;20070;-75
2023/10/08 07:19:32;;;;;;;0.10;0.10;;;;;;;12.77;84.11;98185.31;5132130;27;20510;-77
2023/10/08 07:22:03;;;;;;;0.10;0.10;;;;;;;12.75;83.95;98183.88;5118960;27;20620;-74
2023/10/08 07:24:34;;;;;;;0.10;0.10;;;;;;;12.76;83.97;98202.44;5128429;27;20040;-74
2023/10/08 07:27:08;;;;;;;0.20;0.20;;;;;;;12.58;83.82;98210.09;5134706;27;20396;-74
2023/10/08 07:29:36;;;;;;;0.20;0.20;;;;;;;12.60;84.02;98200.03;5138099;27;20043;-76
2023/10/08 07:32:09;;;;;;;0.10;0.10;;;;;;;12.61;84.16;98214.25;5140263;27;20097;-77
2023/10/08 07:34:37;;;;;;;0.20;0.20;;;;;;;12.63;84.40;98210.38;5143188;27;20059;-74
2023/10/08 07:37:06;;;;;;;0.20;0.20;;;;;;;12.63;83.78;98215.72;5130246;27;20081;-74
2023/10/08 07:39:35;;;;;;;0.03;0.03;;;;;;;12.43;84.75;98228.91;5135370;27;20049;-74
2023/10/08 07:42:08;;;;;;;0.10;0.10;;;;;;;12.48;84.37;98239.88;5136093;27;20066;-75
2023/10/08 07:44:36;;;;;;;0.10;0.10;;;;;;;12.41;84.06;98252.38;5136157;27;20491;-74
2023/10/08 07:47:09;;;;;;;0.20;0.20;;;;;;;12.46;84.28;98257.97;5133760;27;20078;-74
2023/10/08 07:49:38;;;;;;;0.10;0.10;;;;;;;12.41;84.01;98256.91;5139189;27;20046;-74
2023/10/08 07:52:05;;;;;;;0.13;0.13;;;;;;;12.45;84.04;98266.22;5137113;27;20053;-74
2023/10/08 07:54:34;;;;;;;0.10;0.10;;;;;;;12.47;83.50;98264.97;5135601;27;20057;-74
2023/10/08 07:57:09;;;;;;;0.25;0.25;;;;;;;12.46;83.24;98265.16;5134473;27;20043;-75
2023/10/08 07:59:46;;;;;;;0.10;0.10;;;;;;;12.29;84.04;98263.75;5135164;27;20043;-75
2023/10/08 08:02:16;;;;;;;0.10;0.10;;;;;;;12.26;84.08;98269.47;5142517;27;20064;-74
2023/10/08 08:04:45;;;;;;;0.10;0.10;;;;;;;12.28;83.77;98268.28;5146645;27;20476;-75
2023/10/08 08:07:15;;;;;;;0.45;0.45;;;;;;;12.32;84.03;98274.09;5145846;27;20483;-74
2023/10/08 08:09:50;;;;;;;0.10;0.10;;;;;;;12.34;84.43;98269.38;5146983;27;20066;-74
2023/10/08 08:12:19;;;;;;;0.10;0.10;;;;;;;12.36;84.04;98272.69;5150606;27;20084;-74
2023/10/08 08:14:48;;;;;;;0.20;0.20;;;;;;;12.36;84.44;98264.66;5154365;27;20457;-74
2023/10/08 08:17:16;;;;;;;0.17;0.17;;;;;;;12.34;84.50;98264.03;5141592;27;20053;-75
2023/10/08 08:19:47;;;;;;;0.20;0.20;;;;;;;12.37;84.55;98277.84;5139854;27;20043;-75
2023/10/08 08:22:21;;;;;;;0.08;0.08;;;;;;;12.45;84.64;98276.94;5138072;27;20078;-74
2023/10/08 08:24:53;;;;;;;0.13;0.13;;;;;;;12.45;84.40;98272.41;5138707;27;20122;-74
2023/10/08 08:27:25;;;;;;;0.10;0.10;;;;;;;12.47;84.31;98278.38;5131477;27;20066;-75
2023/10/08 08:29:55;;;;;;;0.10;0.10;;;;;;;12.46;84.06;98283.91;5133189;27;20044;-75
2023/10/08 08:32:24;;;;;;;0.25;0.25;;;;;;;12.47;84.42;98285.56;5136635;27;20055;-76
2023/10/08 08:34:52;;;;;;;0.10;0.10;;;;;;;12.48;84.37;98293.41;5129379;27;20551;-76
2023/10/08 08:37:22;;;;;;;0.20;0.20;;;;;;;12.46;84.48;98281.22;5132545;27;20053;-77
2023/10/08 08:39:51;;;;;;;0.10;0.10;;;;;;;12.46;84.70;98291.94;5133373;27;20042;-76
2023/10/08 08:42:21;;;;;;;0.10;0.10;;;;;;;12.48;84.50;98297.94;5132511;27;20047;-77
2023/10/08 08:44:50;;;;;;;0.10;0.10;;;;;;;12.26;84.15;98299.75;5135451;27;20057;-76
2023/10/08 08:47:24;;;;;;;0.10;0.10;;;;;;;12.26;83.63;98307.78;5105287;27;20077;-76
2023/10/08 08:49:55;;;;;;;0.20;0.20;;;;;;;11.97;83.38;98314.00;5132466;27;20558;-75
2023/10/08 08:52:25;;;;;;;0.20;0.20;;;;;;;12.09;83.34;98325.06;5133437;27;20035;-76
2023/10/08 08:54:53;;;;;;;0.10;0.10;;;;;;;12.07;82.88;98327.94;5133298;27;20125;-76
2023/10/08 08:57:22;;;;;;;0.10;0.10;;;;;;;11.94;83.35;98340.31;5133065;27;20398;-76
2023/10/08 08:59:53;;;;;;;0.10;0.10;;;;;;;11.81;83.98;98340.13;5135288;27;20072;-76
2023/10/08 09:02:23;;;;;;;0.10;0.10;;;;;;;11.85;84.06;98357.44;5137840;27;20047;-76
2023/10/08 09:04:53;;;;;;;0.10;0.10;;;;;;;11.75;84.25;98360.41;5145150;27;20084;-75
2023/10/08 09:07:24;;;;;;;0.10;0.10;;;;;;;11.78;84.35;98373.41;5123204;27;20077;-75
2023/10/08 09:09:58;;;;;;;0.20;0.20;;;;;;;11.78;84.83;98365.38;5124567;27;20093;-76
2023/10/08 09:12:27;;;;;;;0.22;0.22;;;;;;;11.83;85.06;98373.72;5135088;27;20039;-76
2023/10/08 09:15:02;;;;;;;0.10;0.10;;;;;;;11.79;85.25;98377.75;5133618;27;20469;-76
2023/10/08 09:17:33;;;;;;;0.10;0.10;;;;;;;11.82;84.97;98390.75;5131301;27;20467;-76
2023/10/08 09:20:04;;;;;;;0.10;0.10;;;;;;;11.88;84.32;98381.16;5132562;27;20114;-75
2023/10/08 09:22:31;;;;;;;0.20;0.20;;;;;;;11.73;84.33;98399.84;5129574;27;20039;-76
2023/10/08 09:25:00;;;;;;;0.20;0.20;;;;;;;11.70;84.34;98401.03;5128870;27;20078;-77
2023/10/08 09:27:30;;;;;;;0.15;0.15;;;;;;;11.61;84.31;98391.44;5131727;27;20043;-76
2023/10/08 09:29:59;;;;;;;0.20;0.20;;;;;;;11.66;84.02;98383.69;5130240;27;20051;-76
2023/10/08 09:32:27;;;;;;;0.17;0.17;;;;;;;11.72;83.92;98384.81;5132555;27;20043;-76
2023/10/08 09:34:57;;;;;;;0.20;0.20;;;;;;;11.71;84.02;98407.22;5132617;27;20043;-77
2023/10/08 09:37:25;;;;;;;0.20;0.20;;;;;;;11.63;83.98;98426.81;5122854;27;20047;-74
2023/10/08 09:39:53;;;;;;;0.15;0.15;;;;;;;11.66;84.32;98436.34;5131677;27;20126;-76
2023/10/08 09:42:22;;;;;;;0.10;0.10;;;;;;;11.58;84.23;98428.41;5126105;27;20419;-77
2023/10/08 09:44:50;;;;;;;0.30;0.30;;;;;;;11.66;84.16;98425.63;5132880;27;20058;-76
2023/10/08 09:47:22;;;;;;;0.10;0.10;;;;;;;11.65;83.54;98418.63;5132270;27;20067;-77
2023/10/08 09:49:57;;;;;;;0.20;0.20;;;;;;;11.69;83.41;98409.25;5132095;27;20050;-77
2023/10/08 09:52:31;;;;;;;0.22;0.22;;;;;;;11.65;83.30;98407.94;5130797;27;20046;-77
2023/10/08 09:55:03;;;;;;;0.15;0.15;;;;;;;11.59;83.71;98414.00;5130911;27;20602;-77
2023/10/08 09:57:33;;;;;;;0.20;0.20;;;;;;;11.71;83.80;98416.09;5135381;27;20114;-77
2023/10/08 10:00:00;;;;;;;0.30;0.30;;;;;;;11.74;84.88;98412.19;5125939;27;20047;-76
2023/10/08 10:02:32;;;;;;;0.10;0.10;;;;;;;11.90;84.56;98409.41;5129990;27;20047;-76
2023/10/08 10:05:02;;;;;;;0.20;0.20;;;;;;;11.97;83.80;98409.50;5131764;27;20050;-76
2023/10/08 10:07:30;;;;;;;0.10;0.10;;;;;;;12.10;83.98;98417.72;5131148;27;20066;-76
2023/10/08 10:09:58;;;;;;;0.10;0.10;;;;;;;12.23;83.75;98425.13;5131310;27;20035;-75
2023/10/08 10:12:28;;;;;;;0.10;0.10;;;;;;;12.21;82.75;98411.06;5137238;27;20050;-75
2023/10/08 10:14:57;;;;;;;0.10;0.10;;;;;;;12.09;82.63;98421.41;5131550;27;20043;-76
2023/10/08 10:17:28;;;;;;;0.10;0.10;;;;;;;12.19;83.22;98410.44;5131849;27;20123;-77
2023/10/08 10:20:14;;;;;;;0.30;0.30;;;;;;;12.10;83.19;98421.22;5124130;27;20039;-77
2023/10/08 10:22:44;;;;;;;0.15;0.15;;;;;;;11.98;82.79;98438.75;5132951;27;20417;-77
2023/10/08 10:25:17;;;;;;;0.17;0.17;;;;;;;11.97;83.24;98438.91;5128928;28;20104;-79
2023/10/08 10:28:22;;;;;;;0.10;0.10;;;;;;;11.81;82.77;98444.44;5131359;28;20047;-76
2023/10/08 10:30:51;;;;;;;0.17;0.17;;;;;;;11.67;83.10;98448.69;5120886;27;20058;-76
2023/10/08 10:33:18;;;;;;;0.20;0.20;;;;;;;11.70;83.53;98453.69;5134297;27;20403;-74
2023/10/08 10:35:54;;;;;;;0.22;0.22;;;;;;;11.65;83.49;98464.91;5127641;28;20039;-76
2023/10/08 10:38:26;;;;;;;0.20;0.20;;;;;;;11.66;83.49;98474.59;5131688;28;20122;-77
2023/10/08 10:40:57;;;;;;;0.20;0.20;;;;;;;11.71;82.94;98466.88;5132233;27;20046;-77
2023/10/08 10:43:31;;;;;;;0.20;0.20;;;;;;;11.71;82.31;98466.88;5133752;27;20131;-76
2023/10/08 10:46:19;;;;;;;0.17;0.17;;;;;;;11.59;81.86;98468.31;5122667;28;20044;-76
2023/10/08 10:49:04;;;;;;;0.20;0.20;;;;;;;11.55;82.19;98469.69;5130651;27;20039;-76
2023/10/08 10:51:33;;;;;;;0.10;0.10;;;;;;;11.60;82.13;98474.50;5137627;27;20036;-76
2023/10/08 10:54:07;;;;;;;0.20;0.20;;;;;;;11.59;81.74;98465.66;5136647;27;20061;-76
2023/10/08 10:56:40;;;;;;;0.25;0.25;;;;;;;11.59;81.62;98473.66;5136915;27;20053;-76
2023/10/08 10:59:18;;;;;;;0.10;0.10;;;;;;;11.55;81.80;98475.03;5136091;27;20113;-77
2023/10/08 11:01:46;;;;;;;0.10;0.10;;;;;;;11.59;80.88;98471.00;5134433;27;20043;-75
2023/10/08 11:04:19;;;;;;;0.10;0.10;;;;;;;11.60;80.78;98474.50;5130891;27;20064;-76
2023/10/08 11:06:50;;;;;;;0.28;0.28;;;;;;;11.58;80.50;98482.69;5132424;27;20035;-76
2023/10/08 11:09:35;;;;;;;0.17;0.17;;;;;;;11.52;80.50;98485.28;5127353;27;20114;-76
2023/10/08 11:12:10;;;;;;;0.20;0.20;;;;;;;11.51;81.06;98487.09;5135257;27;20062;-76
2023/10/08 11:14:41;;;;;;;0.20;0.20;;;;;;;11.54;80.71;98491.25;5132676;27;20043;-77
2023/10/08 11:17:13;;;;;;;0.10;0.10;;;;;;;11.61;80.79;98494.88;5133354;27;20046;-76
2023/10/08 11:19:42;;;;;;;0.10;0.10;;;;;;;11.69;80.61;98492.16;5135414;27;20125;-76
2023/10/08 11:22:16;;;;;;;0.17;0.17;;;;;;;11.68;80.63;98493.16;5126878;27;20039;-75
2023/10/08 11:24:47;;;;;;;0.20;0.20;;;;;;;11.67;80.11;98491.47;5135237;27;20121;-75
2023/10/08 11:27:17;;;;;;;0.10;0.10;;;;;;;11.69;79.83;98490.31;5135106;27;20043;-77
2023/10/08 11:29:47;;;;;;;0.20;0.20;;;;;;;11.72;79.92;98489.13;5133299;27;20046;-77
2023/10/08 11:32:17;;;;;;;0.15;0.15;;;;;;;11.77;79.77;98492.09;5135578;27;20049;-76
2023/10/08 11:34:49;;;;;;;0.17;0.17;;;;;;;11.73;79.14;98501.47;5136188;27;20118;-76
2023/10/08 11:37:28;;;;;;;0.13;0.13;;;;;;;11.73;79.85;98490.78;5124358;27;20043;-76
2023/10/08 11:39:58;;;;;;;0.17;0.17;;;;;;;11.72;79.76;98479.25;5133858;27;20046;-75
2023/10/08 11:42:43;;;;;;;0.10;0.10;;;;;;;11.79;79.74;98486.56;5131986;27;20043;-76
2023/10/08 11:45:19;;;;;;;0.20;0.20;;;;;;;11.83;79.25;98479.88;5128455;27;20043;-76
2023/10/08 11:47:48;;;;;;;0.20;0.20;;;;;;;11.85;79.11;98484.00;5136879;27;20122;-76
2023/10/08 11:50:19;;;;;;;0.10;0.10;;;;;;;11.85;78.88;98472.47;5135825;27;20213;-75
2023/10/08 11:52:49;;;;;;;0.20;0.20;;;;;;;11.77;78.67;98466.19;5142662;27;20047;-75
2023/10/08 11:55:18;;;;;;;0.20;0.20;;;;;;;11.80;79.26;98458.81;5144939;27;20050;-76
2023/10/08 11:57:48;;;;;;;0.20;0.20;;;;;;;11.62;78.96;98453.78;5148429;27;20035;-75
2023/10/08 12:00:20;;;;;;;0.20;0.20;;;;;;;11.73;77.91;98450.66;5152606;27;20050;-76
2023/10/08 12:03:01;;;;;;;0.20;0.20;;;;;;;11.76;77.76;98444.97;5136506;27;20491;-76
2023/10/08 12:05:29;;;;;;;0.10;0.10;;;;;;;11.59;78.88;98448.78;5134537;27;20047;-76
2023/10/08 12:07:59;;;;;;;0.20;0.20;;;;;;;11.73;78.08;98448.00;5133699;27;20031;-76
2023/10/08 12:10:31;;;;;;;0.10;0.10;;;;;;;11.66;78.74;98436.34;5133779;27;20043;-76
2023/10/08 12:12:59;;;;;;;0.20;0.20;;;;;;;11.77;77.82;98452.81;5139636;27;20122;-76
2023/10/08 12:15:34;;;;;;;0.20;0.20;;;;;;;11.49;78.67;98454.38;5137025;27;20043;-76
2023/10/08 12:18:11;;;;;;;0.32;0.32;;;;;;;11.63;78.44;98458.91;5133736;27;20100;-76